Time;durP1;ratioP1;P1;durP2;ratioP2;P2;SDS_P1;SDS_P2;PMS_P1;PMS_P2;Temp;Humidity;BMP_temperature;BMP_pressure;BME280_temperature;BME280_humidity;BME280_pressure;Samples;Min_cycle;Max_cycle;Signal;HPM_P1;HPM_P2
2023/09/23 00:01:28;;;;;;;4.43;1.10;;;13.00;99.90;;;;;;5107846;27;20555;-62
2023/09/23 00:03:54;;;;;;;3.05;1.00;;;13.10;99.90;;;;;;5125947;27;20083;-60
2023/09/23 00:06:21;;;;;;;3.17;1.10;;;13.10;99.90;;;;;;5125834;27;20073;-61
2023/09/23 00:08:48;;;;;;;2.90;0.90;;;13.20;99.90;;;;;;5108934;27;20039;-60
2023/09/23 00:11:14;;;;;;;3.65;1.20;;;13.10;99.90;;;;;;5106370;27;20077;-60
2023/09/23 00:13:40;;;;;;;2.83;1.10;;;13.10;99.90;;;;;;5107041;27;20043;-60
2023/09/23 00:16:15;;;;;;;3.67;1.23;;;13.10;99.90;;;;;;5126105;27;20029;-58
2023/09/23 00:18:42;;;;;;;3.58;1.50;;;13.20;99.90;;;;;;5106509;27;20035;-60
2023/09/23 00:21:09;;;;;;;3.65;1.55;;;13.10;99.90;;;;;;5125553;27;20084;-59
2023/09/23 00:23:34;;;;;;;3.72;1.70;;;13.00;99.90;;;;;;5106221;27;20118;-60
2023/09/23 00:26:03;;;;;;;5.05;1.30;;;13.10;99.90;;;;;;5125409;27;20549;-59
2023/09/23 00:28:30;;;;;;;5.05;2.35;;;12.90;99.90;;;;;;5124322;27;20051;-59
2023/09/23 00:31:05;;;;;;;5.13;2.65;;;13.00;99.90;;;;;;5125485;27;20397;-61
2023/09/23 00:33:32;;;;;;;5.20;3.40;;;13.10;99.90;;;;;;5125587;27;20035;-60
2023/09/23 00:35:59;;;;;;;5.20;2.65;;;13.00;99.90;;;;;;5124983;27;20035;-60
2023/09/23 00:38:24;;;;;;;6.82;4.97;;;13.10;99.90;;;;;;5124952;27;20474;-60
2023/09/23 00:40:51;;;;;;;6.72;5.75;;;13.10;99.90;;;;;;5125165;27;20035;-59
2023/09/23 00:43:18;;;;;;;8.35;6.88;;;13.00;99.90;;;;;;5125237;27;20047;-61
2023/09/23 00:45:48;;;;;;;6.93;6.18;;;13.50;99.90;;;;;;5107166;27;20047;-61
2023/09/23 00:48:21;;;;;;;7.47;6.15;;;13.10;99.90;;;;;;5106372;27;20035;-61
2023/09/23 00:50:50;;;;;;;7.22;3.80;;;13.10;99.90;;;;;;5124958;27;20389;-62
2023/09/23 00:53:17;;;;;;;7.45;6.55;;;13.10;99.90;;;;;;5088919;27;20039;-60
2023/09/23 00:55:51;;;;;;;9.90;7.03;;;13.10;99.90;;;;;;5124601;27;20034;-63
2023/09/23 00:58:21;;;;;;;8.32;6.93;;;13.00;99.90;;;;;;5124485;27;20023;-63
2023/09/23 01:00:48;;;;;;;7.75;4.55;;;12.90;99.90;;;;;;5124507;27;20039;-60
2023/09/23 01:03:18;;;;;;;8.43;7.63;;;13.10;99.90;;;;;;5105592;27;20091;-61
2023/09/23 01:05:45;;;;;;;9.50;7.53;;;13.10;99.90;;;;;;5124200;27;20483;-57
2023/09/23 01:08:12;;;;;;;7.50;6.55;;;13.00;99.90;;;;;;5124489;27;20072;-61
2023/09/23 01:10:38;;;;;;;9.85;7.10;;;13.10;99.90;;;;;;5124658;27;20038;-61
2023/09/23 01:13:06;;;;;;;7.80;6.45;;;12.90;99.90;;;;;;5106181;27;20042;-61
2023/09/23 01:15:34;;;;;;;6.57;5.63;;;12.90;99.90;;;;;;5106194;27;20064;-61
2023/09/23 01:18:01;;;;;;;5.80;4.45;;;12.90;99.90;;;;;;5123808;27;20031;-61
2023/09/23 01:20:26;;;;;;;6.80;3.75;;;13.10;99.90;;;;;;5124342;27;20039;-60
2023/09/23 01:22:57;;;;;;;5.38;3.60;;;12.80;99.90;;;;;;5124444;27;20035;-60
2023/09/23 01:25:24;;;;;;;5.28;3.20;;;12.90;99.90;;;;;;5124651;27;20099;-61
2023/09/23 01:27:50;;;;;;;4.60;2.80;;;12.90;99.90;;;;;;5105297;27;20133;-61
2023/09/23 01:30:16;;;;;;;5.10;3.63;;;12.70;99.90;;;;;;5124288;27;20109;-61
2023/09/23 01:32:41;;;;;;;6.25;3.10;;;12.80;99.90;;;;;;5123755;27;20088;-61
2023/09/23 01:35:09;;;;;;;4.95;3.30;;;12.60;99.90;;;;;;5105079;27;20031;-63
2023/09/23 01:37:35;;;;;;;3.42;1.83;;;12.70;99.90;;;;;;5123594;27;20035;-62
2023/09/23 01:40:02;;;;;;;5.65;3.28;;;12.60;99.90;;;;;;5123824;27;20506;-59
2023/09/23 01:42:30;;;;;;;4.47;3.40;;;12.50;99.90;;;;;;5123978;27;20082;-61
2023/09/23 01:44:57;;;;;;;6.97;2.13;;;12.30;99.90;;;;;;5123210;27;20124;-60
2023/09/23 01:47:23;;;;;;;6.78;4.13;;;12.40;99.90;;;;;;5123804;27;20039;-61
2023/09/23 01:49:49;;;;;;;5.80;3.90;;;12.20;99.90;;;;;;5124020;27;20343;-62
2023/09/23 01:52:17;;;;;;;6.18;4.03;;;12.20;99.90;;;;;;5104932;27;20058;-62
2023/09/23 01:54:47;;;;;;;5.60;4.32;;;12.30;99.90;;;;;;5123345;27;20051;-58
2023/09/23 01:57:16;;;;;;;6.13;4.38;;;12.10;99.90;;;;;;5122393;27;20058;-62
2023/09/23 01:59:45;;;;;;;5.93;4.43;;;12.20;99.90;;;;;;5105266;27;20433;-60
2023/09/23 02:02:11;;;;;;;6.45;2.45;;;12.10;99.90;;;;;;5087245;28;20039;-61
2023/09/23 02:04:38;;;;;;;5.72;3.13;;;12.10;99.90;;;;;;5124214;27;20047;-60
2023/09/23 02:07:04;;;;;;;7.75;5.78;;;12.00;99.90;;;;;;5123321;27;20085;-62
2023/09/23 02:09:37;;;;;;;7.93;6.40;;;11.90;99.90;;;;;;5105946;27;20450;-59
2023/09/23 02:12:03;;;;;;;8.75;7.30;;;12.00;99.90;;;;;;5122983;27;20126;-60
2023/09/23 02:14:30;;;;;;;8.50;7.60;;;11.90;99.90;;;;;;5123251;27;20053;-62
2023/09/23 02:16:57;;;;;;;10.05;8.63;;;12.00;99.90;;;;;;5105039;28;20110;-59
2023/09/23 02:19:27;;;;;;;9.77;8.30;;;11.90;99.90;;;;;;5123546;28;20064;-62
2023/09/23 02:21:53;;;;;;;10.57;8.48;;;12.00;99.90;;;;;;5105773;28;20110;-61
2023/09/23 02:24:19;;;;;;;9.45;8.50;;;11.90;99.90;;;;;;5123686;28;20200;-62
2023/09/23 02:26:45;;;;;;;8.85;4.50;;;11.90;99.90;;;;;;5104644;28;20091;-60
2023/09/23 02:29:14;;;;;;;9.57;8.57;;;11.90;99.90;;;;;;5123853;27;20096;-61
2023/09/23 02:31:46;;;;;;;10.27;8.73;;;11.80;99.90;;;;;;5122996;27;20058;-62
2023/09/23 02:34:16;;;;;;;10.20;9.15;;;11.90;99.90;;;;;;5123191;28;20378;-59
2023/09/23 02:36:43;;;;;;;10.05;8.85;;;12.00;99.90;;;;;;5123202;28;20035;-60
2023/09/23 02:39:14;;;;;;;11.13;9.80;;;12.00;99.90;;;;;;5123311;28;20120;-61
2023/09/23 02:41:40;;;;;;;10.15;5.63;;;11.90;99.90;;;;;;5106063;28;20064;-63
2023/09/23 02:44:06;;;;;;;11.15;9.02;;;11.80;99.90;;;;;;5123185;28;20383;-61
2023/09/23 02:46:32;;;;;;;9.77;8.60;;;11.90;99.90;;;;;;5123388;28;20053;-59
2023/09/23 02:48:58;;;;;;;11.38;10.27;;;11.80;99.90;;;;;;5122105;28;20096;-59
2023/09/23 02:51:24;;;;;;;10.95;6.20;;;11.90;99.90;;;;;;5105307;28;20517;-61
2023/09/23 02:53:50;;;;;;;12.27;10.93;;;11.80;99.90;;;;;;5123216;28;20043;-63
2023/09/23 02:56:18;;;;;;;13.27;10.05;;;11.90;99.90;;;;;;5123132;28;20031;-62
2023/09/23 02:58:44;;;;;;;12.18;10.82;;;11.90;99.90;;;;;;5104465;28;20416;-60
2023/09/23 03:01:14;;;;;;;12.02;10.82;;;11.80;99.90;;;;;;5123544;28;20092;-62
2023/09/23 03:03:40;;;;;;;10.20;5.95;;;11.90;99.90;;;;;;5123454;28;20042;-61
2023/09/23 03:06:10;;;;;;;12.40;11.20;;;11.80;99.90;;;;;;5104957;28;20047;-60
2023/09/23 03:08:43;;;;;;;12.23;10.93;;;11.70;99.90;;;;;;5123506;27;20031;-61
2023/09/23 03:11:11;;;;;;;12.35;11.13;;;11.60;99.90;;;;;;5126666;27;20125;-59
2023/09/23 03:13:38;;;;;;;12.00;10.85;;;11.60;99.90;;;;;;5127041;27;20043;-61
2023/09/23 03:16:08;;;;;;;9.20;5.80;;;11.60;99.90;;;;;;5126363;27;20027;-61
2023/09/23 03:18:37;;;;;;;9.60;5.47;;;11.80;99.90;;;;;;5126650;27;20263;-61
2023/09/23 03:21:10;;;;;;;11.25;6.50;;;11.70;99.90;;;;;;5127309;27;20026;-62
2023/09/23 03:23:39;;;;;;;11.55;9.63;;;11.70;99.90;;;;;;5126551;27;20036;-59
2023/09/23 03:26:06;;;;;;;10.40;9.35;;;11.80;99.90;;;;;;5127114;27;20092;-62
2023/09/23 03:28:33;;;;;;;10.32;9.15;;;11.70;99.90;;;;;;5126094;27;20047;-62
2023/09/23 03:31:00;;;;;;;10.27;9.18;;;11.60;99.90;;;;;;5125732;27;20092;-59
2023/09/23 03:33:27;;;;;;;10.65;9.55;;;11.50;99.90;;;;;;5125013;27;20027;-61
2023/09/23 03:35:53;;;;;;;10.63;9.00;;;11.50;99.90;;;;;;5125132;27;20478;-61
2023/09/23 03:38:19;;;;;;;9.93;8.57;;;11.60;99.90;;;;;;5125379;27;20027;-62
2023/09/23 03:40:52;;;;;;;11.60;9.25;;;11.40;99.90;;;;;;5126395;27;20039;-60
2023/09/23 03:43:19;;;;;;;9.68;8.68;;;11.40;99.90;;;;;;5126475;27;20114;-60
2023/09/23 03:45:44;;;;;;;10.45;9.02;;;11.50;99.90;;;;;;5106504;27;20087;-60
2023/09/23 03:48:11;;;;;;;9.45;5.25;;;11.40;99.90;;;;;;5126096;27;20027;-63
2023/09/23 03:50:37;;;;;;;9.50;8.50;;;11.60;99.90;;;;;;5107100;27;20051;-60
2023/09/23 03:53:02;;;;;;;10.50;8.90;;;11.50;99.90;;;;;;5126595;27;20043;-62
2023/09/23 03:55:29;;;;;;;10.55;8.75;;;11.60;99.90;;;;;;5108490;27;20084;-60
2023/09/23 03:57:55;;;;;;;10.20;5.57;;;11.60;99.90;;;;;;5125126;27;20035;-60
2023/09/23 04:00:26;;;;;;;11.90;10.60;;;11.60;99.90;;;;;;5126217;27;20035;-62
2023/09/23 04:02:53;;;;;;;12.05;10.70;;;11.40;99.90;;;;;;5107677;27;20032;-63
2023/09/23 04:05:20;;;;;;;12.90;11.05;;;11.60;99.90;;;;;;5125028;27;20344;-61
2023/09/23 04:07:49;;;;;;;13.80;12.20;;;11.60;99.90;;;;;;5126356;27;20038;-60
2023/09/23 04:10:19;;;;;;;11.10;6.32;;;11.40;99.90;;;;;;5125053;27;20062;-62
2023/09/23 04:12:46;;;;;;;14.70;12.93;;;11.50;99.90;;;;;;5106973;27;20043;-59
2023/09/23 04:15:11;;;;;;;15.75;13.65;;;11.40;99.90;;;;;;5124892;27;20035;-61
2023/09/23 04:17:38;;;;;;;17.13;14.82;;;11.30;99.90;;;;;;5106701;27;20027;-60
2023/09/23 04:20:11;;;;;;;16.70;14.07;;;11.50;99.90;;;;;;5124812;27;20043;-63
2023/09/23 04:22:38;;;;;;;15.45;7.30;;;11.40;99.90;;;;;;5125968;27;20226;-60
2023/09/23 04:25:05;;;;;;;18.83;15.15;;;11.30;99.90;;;;;;5124956;27;20114;-61
2023/09/23 04:27:32;;;;;;;17.08;14.38;;;11.20;99.90;;;;;;5124848;27;20039;-61
2023/09/23 04:30:00;;;;;;;15.50;13.02;;;11.20;99.90;;;;;;5125671;27;20221;-61
2023/09/23 04:32:27;;;;;;;14.70;13.20;;;11.10;99.90;;;;;;5125822;27;20039;-62
2023/09/23 04:34:52;;;;;;;14.32;12.63;;;11.10;99.90;;;;;;5124759;27;20138;-61
2023/09/23 04:37:18;;;;;;;16.83;14.40;;;11.20;99.90;;;;;;5106501;27;20138;-62
2023/09/23 04:39:44;;;;;;;19.75;16.27;;;11.20;99.90;;;;;;5125400;27;20027;-62
2023/09/23 04:42:11;;;;;;;19.30;17.13;;;11.20;99.90;;;;;;5107050;27;20115;-60
2023/09/23 04:44:37;;;;;;;21.05;18.48;;;11.20;99.90;;;;;;5124482;27;20123;-61
2023/09/23 04:47:02;;;;;;;23.67;19.33;;;11.20;99.90;;;;;;5124456;27;20165;-62
2023/09/23 04:49:28;;;;;;;22.80;20.20;;;11.00;99.90;;;;;;5125272;27;20031;-60
2023/09/23 04:51:54;;;;;;;23.10;20.33;;;11.00;99.90;;;;;;5125220;27;20551;-61
2023/09/23 04:54:21;;;;;;;21.98;10.38;;;10.90;99.90;;;;;;5106780;27;20489;-60
2023/09/23 04:56:48;;;;;;;24.92;20.77;;;11.10;99.90;;;;;;5124569;27;20103;-62
2023/09/23 04:59:13;;;;;;;23.17;11.15;;;11.00;99.90;;;;;;5124818;27;20023;-62
2023/09/23 05:01:40;;;;;;;30.13;24.30;;;11.00;99.90;;;;;;5125202;27;20027;-62
2023/09/23 05:04:07;;;;;;;23.65;12.50;;;11.20;99.90;;;;;;5124611;27;20104;-61
2023/09/23 05:06:35;;;;;;;31.30;24.25;;;11.20;99.90;;;;;;5124930;27;20355;-62
2023/09/23 05:09:01;;;;;;;28.63;13.48;;;11.00;99.90;;;;;;5124574;27;20044;-61
2023/09/23 05:11:27;;;;;;;32.70;26.35;;;11.00;99.90;;;;;;5124251;27;20101;-61
2023/09/23 05:13:52;;;;;;;30.00;14.23;;;11.10;99.90;;;;;;5124507;27;20486;-62
2023/09/23 05:16:18;;;;;;;34.33;26.92;;;11.20;99.90;;;;;;5124886;27;20042;-62
2023/09/23 05:18:44;;;;;;;35.65;27.35;;;11.20;99.90;;;;;;5124055;27;20096;-61
2023/09/23 05:21:10;;;;;;;33.78;28.10;;;11.10;99.90;;;;;;5124421;27;20434;-60
2023/09/23 05:23:36;;;;;;;35.47;29.30;;;11.30;99.90;;;;;;5124506;27;20486;-61
2023/09/23 05:26:04;;;;;;;26.05;14.90;;;11.20;99.90;;;;;;5124726;27;20444;-60
2023/09/23 05:28:30;;;;;;;41.83;30.48;;;11.30;99.90;;;;;;5105163;27;20082;-63
2023/09/23 05:30:56;;;;;;;30.48;15.70;;;11.20;99.90;;;;;;5125771;27;20089;-60
2023/09/23 05:33:21;;;;;;;39.40;33.10;;;11.10;99.90;;;;;;5124304;27;20043;-62
2023/09/23 05:35:47;;;;;;;39.15;33.28;;;11.20;99.90;;;;;;5105651;27;20038;-62
2023/09/23 05:38:13;;;;;;;46.15;35.42;;;11.10;99.90;;;;;;5123930;27;20466;-61
2023/09/23 05:40:38;;;;;;;45.47;36.13;;;11.10;99.90;;;;;;5124717;27;20692;-61
2023/09/23 05:43:04;;;;;;;45.95;38.83;;;11.30;99.90;;;;;;5104604;27;20385;-63
2023/09/23 05:45:31;;;;;;;43.45;37.15;;;11.30;99.90;;;;;;5124589;27;20080;-61
2023/09/23 05:47:57;;;;;;;52.38;39.97;;;11.20;99.90;;;;;;5122960;27;20036;-60
2023/09/23 05:50:23;;;;;;;46.22;38.13;;;11.30;99.90;;;;;;5124190;27;20019;-60
2023/09/23 05:52:49;;;;;;;48.88;39.42;;;11.40;99.90;;;;;;5124296;27;20043;-60
2023/09/23 05:55:15;;;;;;;43.55;19.27;;;11.40;99.90;;;;;;5124327;27;20046;-60
2023/09/23 05:57:42;;;;;;;48.75;38.72;;;11.40;99.90;;;;;;5123277;27;20035;-62
2023/09/23 06:00:10;;;;;;;41.00;21.08;;;11.40;99.90;;;;;;5124215;27;20038;-63
2023/09/23 06:02:35;;;;;;;48.13;21.85;;;11.70;99.90;;;;;;5123724;27;20732;-60
2023/09/23 06:05:02;;;;;;;45.33;37.00;;;11.40;99.90;;;;;;5124124;27;20066;-61
2023/09/23 06:07:33;;;;;;;45.35;38.50;;;11.60;99.90;;;;;;5123890;27;20314;-61
2023/09/23 06:09:59;;;;;;;45.72;37.50;;;11.80;99.90;;;;;;5123740;27;20386;-60
2023/09/23 06:12:32;;;;;;;43.80;20.38;;;11.60;99.90;;;;;;5123740;27;20058;-61
2023/09/23 06:14:58;;;;;;;47.53;38.63;;;11.60;99.90;;;;;;5123151;27;20039;-62
2023/09/23 06:17:25;;;;;;;45.83;22.50;;;11.60;99.90;;;;;;5123112;28;20474;-60
2023/09/23 06:19:51;;;;;;;44.25;37.10;;;11.90;99.90;;;;;;5123683;28;20043;-62
2023/09/23 06:22:18;;;;;;;39.75;21.10;;;11.70;99.90;;;;;;5123491;28;20034;-61
2023/09/23 06:24:44;;;;;;;42.47;36.00;;;11.80;99.90;;;;;;5105131;28;20538;-60
2023/09/23 06:27:09;;;;;;;46.40;36.65;;;12.10;99.90;;;;;;5123250;28;20031;-61
2023/09/23 06:29:35;;;;;;;36.08;19.27;;;12.10;99.90;;;;;;5105114;28;20030;-61
2023/09/23 06:32:01;;;;;;;38.88;20.33;;;12.00;99.90;;;;;;5124144;28;20039;-61
2023/09/23 06:34:26;;;;;;;39.10;21.77;;;12.30;99.90;;;;;;5105748;28;20478;-61
2023/09/23 06:36:52;;;;;;;41.00;34.92;;;12.20;99.90;;;;;;5123414;28;20260;-61
2023/09/23 06:39:17;;;;;;;43.33;34.40;;;12.30;99.90;;;;;;5123267;28;20529;-62
2023/09/23 06:41:45;;;;;;;44.95;35.88;;;12.30;99.90;;;;;;5123181;28;20043;-61
2023/09/23 06:44:10;;;;;;;41.90;34.63;;;12.30;99.90;;;;;;5104983;27;20035;-61
2023/09/23 06:46:36;;;;;;;42.80;34.40;;;12.40;99.90;;;;;;5127543;27;20072;-62
2023/09/23 06:49:02;;;;;;;36.92;19.30;;;12.30;99.90;;;;;;5127600;27;20053;-64
2023/09/23 06:51:28;;;;;;;39.17;33.03;;;12.40;99.90;;;;;;5127048;27;20055;-62
2023/09/23 06:53:54;;;;;;;42.72;33.50;;;12.40;99.90;;;;;;5126985;27;20060;-61
2023/09/23 06:56:19;;;;;;;38.65;31.80;;;12.50;99.90;;;;;;5108540;27;20069;-61
2023/09/23 06:58:45;;;;;;;33.85;17.88;;;12.60;99.90;;;;;;5126539;27;21122;-62
2023/09/23 07:01:11;;;;;;;37.33;19.40;;;12.30;99.90;;;;;;5127095;27;23654;-61
2023/09/23 07:03:36;;;;;;;34.35;20.08;;;12.50;99.90;;;;;;5108803;27;20039;-63
2023/09/23 07:06:02;;;;;;;36.63;30.73;;;12.60;99.90;;;;;;5127608;27;20116;-61
2023/09/23 07:08:28;;;;;;;34.88;19.20;;;12.30;99.90;;;;;;5126225;27;20046;-62
2023/09/23 07:10:55;;;;;;;34.05;19.65;;;12.60;99.90;;;;;;5127456;27;20027;-63
2023/09/23 07:13:21;;;;;;;33.63;19.88;;;12.60;99.90;;;;;;5126555;27;20490;-60
2023/09/23 07:15:46;;;;;;;37.25;30.73;;;12.60;99.90;;;;;;5127958;27;20054;-60
2023/09/23 07:18:13;;;;;;;38.83;31.02;;;12.40;99.90;;;;;;5108514;27;20037;-62
2023/09/23 07:20:39;;;;;;;37.45;30.45;;;12.40;99.90;;;;;;5126285;27;20035;-61
2023/09/23 07:23:05;;;;;;;35.05;29.63;;;12.50;99.90;;;;;;5127149;27;20056;-61
2023/09/23 07:25:38;;;;;;;37.53;19.58;;;12.40;99.90;;;;;;5126808;27;20043;-61
2023/09/23 07:28:06;;;;;;;35.05;29.50;;;12.50;99.90;;;;;;5126199;27;20468;-61
2023/09/23 07:30:36;;;;;;;36.85;31.25;;;12.80;99.90;;;;;;5126611;27;20478;-61
2023/09/23 07:33:02;;;;;;;32.22;28.77;;;12.70;99.90;;;;;;5126638;27;20024;-60
2023/09/23 07:35:31;;;;;;;33.83;29.88;;;12.90;99.90;;;;;;5126406;27;20437;-61
2023/09/23 07:37:59;;;;;;;32.63;28.20;;;12.70;99.90;;;;;;5126429;27;20469;-63
2023/09/23 07:40:28;;;;;;;29.45;17.70;;;12.80;99.90;;;;;;5125788;27;20446;-64
2023/09/23 07:42:54;;;;;;;30.70;26.35;;;12.90;99.90;;;;;;5125499;27;20466;-60
2023/09/23 07:45:20;;;;;;;29.15;16.77;;;13.00;99.90;;;;;;5125940;27;20045;-63
2023/09/23 07:47:46;;;;;;;31.65;27.33;;;12.90;99.90;;;;;;5124495;27;20469;-62
2023/09/23 07:50:12;;;;;;;28.95;17.45;;;13.20;99.90;;;;;;5125352;27;20103;-63
2023/09/23 07:52:38;;;;;;;29.75;26.52;;;13.10;99.90;;;;;;5126118;27;20038;-62
2023/09/23 07:55:07;;;;;;;29.50;26.10;;;13.30;99.90;;;;;;5125852;27;20035;-62
2023/09/23 07:57:33;;;;;;;29.15;16.77;;;13.30;99.90;;;;;;5124545;27;20125;-60
2023/09/23 08:00:03;;;;;;;31.67;18.50;;;13.50;99.90;;;;;;5126302;27;20795;-63
2023/09/23 08:02:29;;;;;;;33.38;18.75;;;13.20;99.90;;;;;;5126490;27;20466;-60
2023/09/23 08:04:55;;;;;;;29.00;26.00;;;13.40;99.90;;;;;;5126481;27;20039;-62
2023/09/23 08:07:21;;;;;;;28.83;25.83;;;13.50;99.90;;;;;;5125849;27;20443;-61
2023/09/23 08:09:46;;;;;;;28.98;18.73;;;13.60;99.90;;;;;;5125664;27;20039;-59
2023/09/23 08:12:12;;;;;;;30.27;17.75;;;13.40;99.90;;;;;;5125567;27;20042;-61
2023/09/23 08:14:38;;;;;;;28.42;17.08;;;13.60;99.90;;;;;;5125990;27;20050;-60
2023/09/23 08:17:04;;;;;;;27.13;18.05;;;13.50;99.90;;;;;;5107701;27;20420;-63
2023/09/23 08:19:29;;;;;;;22.73;16.25;;;13.40;99.90;;;;;;5125488;27;20463;-61
2023/09/23 08:21:55;;;;;;;25.70;15.80;;;13.30;99.90;;;;;;5125669;27;20035;-59
2023/09/23 08:24:21;;;;;;;23.70;21.20;;;13.30;99.90;;;;;;5125179;27;20047;-60
2023/09/23 08:26:47;;;;;;;23.23;15.77;;;13.30;99.90;;;;;;5125526;27;20027;-62
2023/09/23 08:29:14;;;;;;;23.63;21.10;;;13.40;99.90;;;;;;5106776;27;20032;-59
2023/09/23 08:31:40;;;;;;;23.95;15.25;;;13.30;99.90;;;;;;5106876;27;20363;-61
2023/09/23 08:34:09;;;;;;;24.27;21.13;;;13.30;99.90;;;;;;5124835;27;20039;-62
2023/09/23 08:36:35;;;;;;;26.35;16.83;;;13.40;99.90;;;;;;5105950;27;20031;-64
2023/09/23 08:39:04;;;;;;;23.80;16.48;;;13.70;99.90;;;;;;5125657;27;20035;-60
2023/09/23 08:41:31;;;;;;;26.00;18.13;;;14.00;99.90;;;;;;5126121;27;20039;-61
2023/09/23 08:44:00;;;;;;;25.83;19.45;;;14.10;99.90;;;;;;5124749;27;20038;-61
2023/09/23 08:46:26;;;;;;;18.73;16.83;;;14.40;99.90;;;;;;5124986;27;20081;-62
2023/09/23 08:48:52;;;;;;;18.38;16.23;;;14.50;99.90;;;;;;5125148;27;20039;-60
2023/09/23 08:51:23;;;;;;;17.65;15.25;;;14.70;99.90;;;;;;5107692;27;20027;-63
2023/09/23 08:53:51;;;;;;;19.27;11.93;;;14.80;99.90;;;;;;5124909;27;20035;-61
2023/09/23 08:56:18;;;;;;;14.63;12.93;;;14.70;99.90;;;;;;5125610;27;20031;-61
2023/09/23 08:58:44;;;;;;;13.07;9.77;;;14.90;99.90;;;;;;5124331;27;20080;-62
2023/09/23 09:01:11;;;;;;;17.65;10.50;;;14.90;99.90;;;;;;5124867;27;20031;-63
2023/09/23 09:03:37;;;;;;;13.77;11.30;;;14.90;99.90;;;;;;5124641;27;20060;-60
2023/09/23 09:06:03;;;;;;;14.88;9.18;;;14.90;99.90;;;;;;5124640;27;20500;-61
2023/09/23 09:08:31;;;;;;;12.35;8.90;;;14.80;99.90;;;;;;5124287;27;20038;-61
2023/09/23 09:10:59;;;;;;;11.93;9.93;;;15.10;99.90;;;;;;5124302;27;20042;-61
2023/09/23 09:13:25;;;;;;;11.05;8.82;;;15.30;99.90;;;;;;5124429;27;20051;-61
2023/09/23 09:15:51;;;;;;;15.20;7.97;;;15.20;99.90;;;;;;5106224;27;20027;-61
2023/09/23 09:18:17;;;;;;;12.35;7.70;;;15.40;99.90;;;;;;5123859;27;20059;-59
2023/09/23 09:20:43;;;;;;;11.02;7.32;;;15.40;99.90;;;;;;5124776;27;20035;-61
2023/09/23 09:23:13;;;;;;;11.13;6.78;;;15.50;99.90;;;;;;5124523;27;20035;-60
2023/09/23 09:25:47;;;;;;;8.80;6.88;;;15.50;99.90;;;;;;5124257;27;20382;-61
2023/09/23 09:28:12;;;;;;;10.18;7.18;;;15.80;99.90;;;;;;5123560;27;20031;-61
2023/09/23 09:30:39;;;;;;;10.68;7.20;;;15.70;99.90;;;;;;5124648;27;20640;-62
2023/09/23 09:33:08;;;;;;;9.80;6.95;;;15.80;99.90;;;;;;5124332;27;20454;-61
2023/09/23 09:35:34;;;;;;;9.77;6.53;;;15.90;99.90;;;;;;5123780;27;20043;-62
2023/09/23 09:38:06;;;;;;;11.88;6.20;;;15.90;99.90;;;;;;5124481;27;20033;-60
2023/09/23 09:40:32;;;;;;;11.85;5.82;;;15.90;99.90;;;;;;5123305;27;20351;-63
2023/09/23 09:43:00;;;;;;;7.30;4.75;;;16.10;99.90;;;;;;5124332;27;20393;-63
2023/09/23 09:45:26;;;;;;;8.48;5.55;;;16.40;99.90;;;;;;5123650;27;20031;-61
2023/09/23 09:47:55;;;;;;;11.93;5.13;;;16.40;99.90;;;;;;5123785;27;20042;-62
2023/09/23 09:50:23;;;;;;;7.78;5.22;;;16.50;99.90;;;;;;5123907;27;20075;-62
2023/09/23 09:52:49;;;;;;;8.18;4.75;;;16.40;99.90;;;;;;5123497;27;20039;-62
2023/09/23 09:55:18;;;;;;;7.38;4.43;;;16.40;99.90;;;;;;5124072;27;20031;-60
2023/09/23 09:57:52;;;;;;;6.35;3.85;;;16.50;99.90;;;;;;5123180;27;20106;-61
2023/09/23 10:00:28;;;;;;;7.35;4.10;;;16.60;99.90;;;;;;5123643;27;20062;-63
2023/09/23 10:02:59;;;;;;;8.52;4.05;;;16.50;99.90;;;;;;5123149;27;20039;-62
2023/09/23 10:05:51;;;;;;;6.03;4.18;;;16.70;99.90;;;;;;5124336;27;20054;-60
2023/09/23 10:08:24;;;;;;;6.47;3.58;;;16.50;99.90;;;;;;5123521;27;20382;-61
2023/09/23 10:10:51;;;;;;;9.13;3.95;;;16.60;99.90;;;;;;5123894;27;20082;-62
2023/09/23 10:13:19;;;;;;;9.20;4.60;;;16.60;99.90;;;;;;5122858;27;20050;-62
2023/09/23 10:15:45;;;;;;;9.25;3.83;;;16.70;99.90;;;;;;5123596;27;20047;-62
2023/09/23 10:18:18;;;;;;;11.98;3.85;;;16.70;99.90;;;;;;5123267;27;20080;-62
2023/09/23 10:20:49;;;;;;;8.30;4.28;;;16.60;99.90;;;;;;5123857;28;20108;-62
2023/09/23 10:23:20;;;;;;;6.72;3.63;;;16.70;99.90;;;;;;5123225;28;20490;-64
2023/09/23 10:25:52;;;;;;;8.68;3.60;;;16.80;99.90;;;;;;5123411;28;20050;-62
2023/09/23 10:28:22;;;;;;;7.10;3.90;;;16.70;99.90;;;;;;5122330;28;20099;-62
2023/09/23 10:31:01;;;;;;;7.72;3.92;;;16.70;99.90;;;;;;5123494;28;20386;-61
2023/09/23 10:33:29;;;;;;;7.88;3.50;;;16.70;99.90;;;;;;5123465;28;20053;-61
2023/09/23 10:35:56;;;;;;;6.78;3.65;;;16.70;99.90;;;;;;5123559;28;20027;-63
2023/09/23 10:38:31;;;;;;;6.47;3.15;;;16.70;99.90;;;;;;5104271;28;20474;-60
2023/09/23 10:40:57;;;;;;;7.75;4.20;;;16.70;99.90;;;;;;5122657;28;20088;-62
2023/09/23 10:43:23;;;;;;;7.85;3.35;;;16.80;99.90;;;;;;5123410;28;20118;-62
2023/09/23 10:45:58;;;;;;;8.85;3.67;;;16.90;99.90;;;;;;5123619;28;20107;-62
2023/09/23 10:48:24;;;;;;;8.27;3.03;;;16.90;99.90;;;;;;5122635;28;20031;-62
2023/09/23 10:50:51;;;;;;;4.95;2.40;;;16.90;99.90;;;;;;5123068;28;20035;-61
2023/09/23 10:53:18;;;;;;;4.97;2.38;;;17.10;99.90;;;;;;5123046;28;20107;-63
2023/09/23 10:55:44;;;;;;;5.97;2.38;;;17.10;99.90;;;;;;5123338;28;20430;-61
2023/09/23 10:58:10;;;;;;;6.15;2.10;;;17.30;99.90;;;;;;5122853;28;20053;-62
2023/09/23 11:00:37;;;;;;;5.22;2.05;;;17.40;99.90;;;;;;5123214;28;20035;-60
2023/09/23 11:03:17;;;;;;;7.63;2.05;;;17.30;99.90;;;;;;5123031;28;20055;-61
2023/09/23 11:05:44;;;;;;;5.18;1.88;;;17.20;99.90;;;;;;5122549;28;20369;-62
2023/09/23 11:08:12;;;;;;;4.82;2.00;;;17.20;99.90;;;;;;5122928;28;22707;-60
2023/09/23 11:10:44;;;;;;;3.97;1.60;;;17.30;99.90;;;;;;5104537;28;20039;-62
2023/09/23 11:13:11;;;;;;;5.95;1.95;;;17.50;99.90;;;;;;5122844;28;20081;-62
2023/09/23 11:15:39;;;;;;;5.90;1.80;;;17.60;99.90;;;;;;5123428;28;20039;-64
2023/09/23 11:18:10;;;;;;;4.85;1.35;;;17.70;99.90;;;;;;5104404;28;20484;-62
2023/09/23 11:20:38;;;;;;;6.75;1.63;;;17.60;99.90;;;;;;5122791;28;20031;-61
2023/09/23 11:23:05;;;;;;;5.00;1.65;;;17.60;99.90;;;;;;5122504;28;20035;-63
2023/09/23 11:25:46;;;;;;;5.30;1.50;;;17.60;99.90;;;;;;5123410;28;20126;-61
2023/09/23 11:28:23;;;;;;;5.95;1.70;;;17.60;99.90;;;;;;5122666;28;20550;-62
2023/09/23 11:30:51;;;;;;;5.03;1.48;;;17.60;99.90;;;;;;5125716;27;20038;-62
2023/09/23 11:33:17;;;;;;;4.68;1.40;;;17.60;99.90;;;;;;5120299;27;20124;-62
2023/09/23 11:35:43;;;;;;;4.97;1.48;;;17.60;99.90;;;;;;5120148;27;20096;-62
2023/09/23 11:38:10;;;;;;;4.03;1.23;;;17.70;99.90;;;;;;5122522;27;20036;-61
2023/09/23 11:40:36;;;;;;;4.80;1.30;;;17.80;99.90;;;;;;5123641;27;20114;-61
2023/09/23 11:43:02;;;;;;;4.38;1.33;;;17.80;99.90;;;;;;5123194;27;20054;-61
2023/09/23 11:45:28;;;;;;;5.30;1.45;;;17.80;99.90;;;;;;5124392;27;20035;-63
2023/09/23 11:47:57;;;;;;;5.82;1.30;;;17.80;99.90;;;;;;5124457;27;20039;-62
2023/09/23 11:50:26;;;;;;;4.85;1.52;;;17.80;99.90;;;;;;5122218;27;20398;-62
2023/09/23 11:52:52;;;;;;;6.57;1.60;;;17.90;99.90;;;;;;5121429;27;20032;-62
2023/09/23 11:55:18;;;;;;;4.60;1.45;;;17.90;99.90;;;;;;5122948;27;20050;-63
2023/09/23 11:57:44;;;;;;;3.92;1.20;;;17.80;99.90;;;;;;5121670;27;20035;-63
2023/09/23 12:00:11;;;;;;;6.15;1.45;;;17.70;99.90;;;;;;5122655;27;20478;-62
2023/09/23 12:02:40;;;;;;;4.80;1.58;;;17.80;99.90;;;;;;5105143;27;20042;-63
2023/09/23 12:05:16;;;;;;;4.43;1.80;;;17.80;99.90;;;;;;5121956;27;20045;-62
2023/09/23 12:07:45;;;;;;;4.57;1.20;;;18.30;99.90;;;;;;5122218;27;20035;-63
2023/09/23 12:10:13;;;;;;;4.43;1.10;;;18.50;99.90;;;;;;5122243;27;20063;-61
2023/09/23 12:12:39;;;;;;;3.95;1.10;;;18.50;99.90;;;;;;5121563;27;20134;-63
2023/09/23 12:15:08;;;;;;;5.30;1.40;;;18.30;99.90;;;;;;5122890;27;20184;-62
2023/09/23 12:17:35;;;;;;;5.25;1.70;;;18.10;99.90;;;;;;5122757;27;20489;-63
2023/09/23 12:20:00;;;;;;;5.80;1.17;;;18.00;99.90;;;;;;5124374;27;20027;-63
2023/09/23 12:22:26;;;;;;;6.30;1.35;;;17.70;99.90;;;;;;5104264;27;20374;-61
2023/09/23 12:24:52;;;;;;;3.85;1.40;;;17.50;99.90;;;;;;5124016;27;20071;-63
2023/09/23 12:27:19;;;;;;;4.18;1.27;;;17.60;99.90;;;;;;5122151;27;20031;-62
2023/09/23 12:29:45;;;;;;;4.97;1.23;;;17.70;99.90;;;;;;5119285;27;20600;-62
2023/09/23 12:32:11;;;;;;;4.85;1.60;;;17.80;99.90;;;;;;5102380;27;20043;-61
2023/09/23 12:34:37;;;;;;;3.13;0.90;;;17.80;99.90;;;;;;5122905;27;20043;-62
2023/09/23 12:37:04;;;;;;;5.20;1.30;;;17.90;99.90;;;;;;5121889;27;20046;-64
2023/09/23 12:39:29;;;;;;;4.32;1.00;;;17.90;99.90;;;;;;5102027;27;20031;-62